Shady Beach, South Dakota
Current Conditions -  °F | °C
As of 9:54 PM on Friday 24 Oct 2014 (Local Time) from KVVV Reporting Station
Clear Clear  
Wind Chill: 63°   Ceiling: Unl
Heat Index: 63°   Visibility: 10mi
Dew Point: 39°   Wind: 12mph
Humidity: 42%   Direction: 320°NW
Pressure: 29.93"   Gusts: 16mph
Location:  45.3641°N, 96.6682°W
Report Text: KVVV 250254Z AUTO 32010G14KT 10SM CLR 17/04 A2993 RMK AO2
Loading
Personal Weather Stations






























Interactive Weather Map
Tropical Storm Tracking
New forecast layout! Learn more

10-Day Weather Forecast

Advertisements
Track Severe Weather on mobile